createdAt,value
2023-02-11T00:01:42.056Z,-1.67
2023-02-11T00:04:10.662Z,-1.66
2023-02-11T00:06:39.285Z,-1.61
2023-02-11T00:09:08.379Z,-1.63
2023-02-11T00:11:37.244Z,-1.57
2023-02-11T00:14:08.958Z,-1.62
2023-02-11T00:16:39.221Z,-1.61
2023-02-11T00:19:08.144Z,-1.51
2023-02-11T00:21:36.885Z,-1.37
2023-02-11T00:24:06.171Z,-1.46
2023-02-11T00:26:36.828Z,-1.40
2023-02-11T00:29:06.753Z,-1.39
2023-02-11T00:31:35.766Z,-1.30
2023-02-11T00:34:08.740Z,-1.30
2023-02-11T00:36:37.415Z,-1.19
2023-02-11T00:39:06.528Z,-1.24
2023-02-11T00:41:37.879Z,-1.32
2023-02-11T00:44:06.804Z,-1.31
2023-02-11T00:46:35.530Z,-1.33
2023-02-11T00:49:04.297Z,-1.34
2023-02-11T00:51:34.735Z,-1.27
2023-02-11T00:54:06.591Z,-1.37
2023-02-11T00:56:36.150Z,-1.36
2023-02-11T00:59:04.795Z,-1.31
2023-02-11T01:01:33.508Z,-1.31
2023-02-11T01:04:02.209Z,-1.39
2023-02-11T01:06:30.914Z,-1.34
2023-02-11T01:09:01.422Z,-1.36
2023-02-11T01:11:31.060Z,-1.34
2023-02-11T01:13:59.724Z,-1.31
2023-02-11T01:16:28.360Z,-1.34
2023-02-11T01:18:57.102Z,-1.27
2023-02-11T01:21:26.123Z,-1.32
2023-02-11T01:23:54.790Z,-1.30
2023-02-11T01:26:24.809Z,-1.21
2023-02-11T01:28:53.489Z,-1.36
2023-02-11T01:31:22.161Z,-1.39
2023-02-11T01:33:50.822Z,-1.30
2023-02-11T01:36:19.496Z,-1.26
2023-02-11T01:38:49.952Z,-1.22
2023-02-11T01:41:21.153Z,-1.31
2023-02-11T01:43:51.972Z,-1.29
2023-02-11T01:46:33.585Z,-1.25
2023-02-11T01:49:08.099Z,-1.30
2023-02-11T01:51:43.177Z,-1.31
2023-02-11T01:54:29.922Z,-1.25
2023-02-11T01:57:18.835Z,-1.31
2023-02-11T01:59:58.129Z,-1.34
2023-02-11T02:02:34.935Z,-1.31
2023-02-11T02:05:11.346Z,-1.31
2023-02-11T02:07:51.524Z,-1.26
2023-02-11T02:10:25.955Z,-1.32
2023-02-11T02:12:54.967Z,-1.30
2023-02-11T02:15:33.013Z,-1.34
2023-02-11T02:18:26.787Z,-1.30
2023-02-11T02:22:04.399Z,-1.25
2023-02-11T02:25:19.987Z,-1.34
2023-02-11T02:27:57.511Z,-1.29
2023-02-11T02:31:02.351Z,-1.27
2023-02-11T02:33:53.022Z,-1.31
2023-02-11T02:36:31.308Z,-1.31
2023-02-11T02:39:07.857Z,-1.29
2023-02-11T02:41:39.071Z,-1.19
2023-02-11T02:44:10.204Z,-1.27
2023-02-11T02:46:39.418Z,-1.13
2023-02-11T02:49:15.229Z,-1.27
2023-02-11T02:52:12.086Z,-1.22
2023-02-11T02:55:17.630Z,-1.22
2023-02-11T02:58:14.305Z,-1.24
2023-02-11T03:00:55.199Z,-1.14
2023-02-11T03:03:37.845Z,-1.11
2023-02-11T03:06:16.467Z,-1.07
2023-02-11T03:08:52.358Z,-1.07
2023-02-11T03:11:24.350Z,-1.07
2023-02-11T03:13:57.288Z,-1.05
2023-02-11T03:16:29.078Z,-1.11
2023-02-11T03:19:05.038Z,-1.10
2023-02-11T03:21:40.534Z,-1.05
2023-02-11T03:24:14.751Z,-1.10
2023-02-11T03:26:50.909Z,-1.02
2023-02-11T03:29:35.002Z,-1.11
2023-02-11T03:32:16.289Z,-1.03
2023-02-11T03:34:54.075Z,-1.13
2023-02-11T03:37:30.205Z,-1.06
2023-02-11T03:40:06.363Z,-1.05
2023-02-11T03:42:45.060Z,-1.02
2023-02-11T03:45:20.394Z,-0.99
2023-02-11T03:47:56.886Z,-1.09
2023-02-11T03:50:27.287Z,-1.08
2023-02-11T03:53:00.490Z,-1.05
2023-02-11T03:55:31.873Z,-1.04
2023-02-11T03:58:00.514Z,-1.01
2023-02-11T04:00:33.466Z,-1.04
2023-02-11T04:03:02.355Z,-0.94
2023-02-11T04:05:31.597Z,-0.97
2023-02-11T04:08:01.699Z,-0.96
2023-02-11T04:10:30.733Z,-1.01
2023-02-11T04:12:59.570Z,-1.00
2023-02-11T04:15:28.301Z,-0.98
2023-02-11T04:17:57.022Z,-0.98
2023-02-11T04:20:25.680Z,-0.97
2023-02-11T04:22:54.470Z,-0.91
2023-02-11T04:25:25.985Z,-1.00
2023-02-11T04:27:54.708Z,-1.03
2023-02-11T04:30:23.800Z,-0.99
2023-02-11T04:32:54.290Z,-0.99
2023-02-11T04:35:23.115Z,-0.89
2023-02-11T04:37:51.823Z,-0.92
2023-02-11T04:40:20.709Z,-0.95
2023-02-11T04:42:50.728Z,-0.95
2023-02-11T04:45:19.589Z,-0.96
2023-02-11T04:47:48.261Z,-0.90
2023-02-11T04:50:17.048Z,-0.84
2023-02-11T04:52:45.624Z,-0.91
2023-02-11T04:55:14.752Z,-0.89
2023-02-11T04:57:43.422Z,-0.83
2023-02-11T05:00:15.361Z,-0.92
2023-02-11T05:02:44.136Z,-0.93
2023-02-11T05:05:12.836Z,-0.85
2023-02-11T05:07:41.490Z,-0.80
2023-02-11T05:10:10.652Z,-0.73
2023-02-11T05:12:39.372Z,-0.79
2023-02-11T05:15:09.035Z,-0.83
2023-02-11T05:17:39.094Z,-0.74
2023-02-11T05:20:09.055Z,-0.80
2023-02-11T05:22:37.724Z,-0.79
2023-02-11T05:25:07.381Z,-0.75
2023-02-11T05:27:36.330Z,-0.75
2023-02-11T05:30:05.569Z,-0.80
2023-02-11T05:32:34.397Z,-0.83
2023-02-11T05:35:04.487Z,-0.73
2023-02-11T05:37:33.353Z,-0.81
2023-02-11T05:40:02.115Z,-0.76
2023-02-11T05:42:31.721Z,-0.72
2023-02-11T05:45:00.355Z,-0.80
2023-02-11T05:47:29.296Z,-0.68
2023-02-11T05:49:58.025Z,-0.74
2023-02-11T05:52:28.033Z,-0.73
2023-02-11T05:54:56.650Z,-0.81
2023-02-11T05:57:25.361Z,-0.67
2023-02-11T05:59:54.053Z,-0.65
2023-02-11T06:02:22.724Z,-0.64
2023-02-11T06:04:51.505Z,-0.57
2023-02-11T06:07:20.790Z,-0.66
2023-02-11T06:09:51.245Z,-0.51
2023-02-11T06:12:19.930Z,-0.59
2023-02-11T06:14:48.566Z,-0.59
2023-02-11T06:17:17.476Z,-0.61
2023-02-11T06:19:46.077Z,-0.52
2023-02-11T06:22:14.699Z,-0.49
2023-02-11T06:25:00.413Z,-0.43
2023-02-11T06:27:33.486Z,-0.38
2023-02-11T06:30:02.200Z,-0.39
2023-02-11T06:32:49.072Z,-0.28
2023-02-11T06:35:19.062Z,-0.40
2023-02-11T06:37:52.186Z,-0.32
2023-02-11T06:40:21.070Z,-0.35
2023-02-11T06:42:51.133Z,-0.31
2023-02-11T06:45:20.666Z,-0.24
2023-02-11T06:47:49.621Z,-0.32
2023-02-11T06:50:18.337Z,-0.18
2023-02-11T06:52:47.018Z,-0.20
2023-02-11T06:55:16.349Z,-0.17
2023-02-11T06:57:44.938Z,-0.26
2023-02-11T07:00:16.543Z,-0.27
2023-02-11T07:02:45.302Z,-0.24
2023-02-11T07:05:13.945Z,-0.21
2023-02-11T07:07:42.619Z,-0.14
2023-02-11T07:10:11.473Z,-0.13
2023-02-11T07:12:41.663Z,0.07
2023-02-11T07:15:10.700Z,0.01
2023-02-11T07:17:40.723Z,-0.03
2023-02-11T07:20:12.499Z,-0.03
2023-02-11T07:22:41.231Z,0.01
2023-02-11T07:25:10.227Z,0.13
2023-02-11T07:27:38.944Z,0.11
2023-02-11T07:30:09.325Z,0.17
2023-02-11T07:32:38.232Z,0.11
2023-02-11T07:35:09.014Z,0.22
2023-02-11T07:37:37.954Z,0.20
2023-02-11T07:40:07.702Z,0.37
2023-02-11T07:42:36.768Z,0.43
2023-02-11T07:45:05.828Z,0.38
2023-02-11T07:47:35.932Z,0.35
2023-02-11T07:50:04.605Z,0.42
2023-02-11T07:52:34.705Z,0.44
2023-02-11T07:55:04.947Z,0.39
2023-02-11T07:57:33.727Z,0.40
2023-02-11T08:00:02.423Z,0.41
2023-02-11T08:02:39.799Z,0.46
2023-02-11T08:05:09.083Z,0.31
2023-02-11T08:07:39.068Z,0.29
2023-02-11T08:10:08.363Z,0.36
2023-02-11T08:12:38.326Z,0.27
2023-02-11T08:15:07.520Z,0.30
2023-02-11T08:17:37.055Z,0.32
2023-02-11T08:20:06.780Z,0.36
2023-02-11T08:22:36.127Z,0.30
2023-02-11T08:25:07.250Z,0.45
2023-02-11T08:27:35.889Z,0.72
2023-02-11T08:30:04.788Z,0.89
2023-02-11T08:32:36.316Z,0.81
2023-02-11T08:35:05.204Z,0.66
2023-02-11T08:37:34.609Z,0.34
2023-02-11T08:40:03.307Z,0.32
2023-02-11T08:42:33.376Z,0.26
2023-02-11T08:45:02.053Z,0.08
2023-02-11T08:47:32.668Z,0.20
2023-02-11T08:50:01.298Z,0.24
2023-02-11T08:52:29.928Z,0.29
2023-02-11T08:54:58.885Z,0.37
2023-02-11T08:57:27.820Z,0.36
2023-02-11T08:59:58.514Z,0.35
2023-02-11T09:02:27.223Z,0.34
2023-02-11T09:04:55.992Z,0.30
2023-02-11T09:07:26.048Z,0.36
2023-02-11T09:09:54.894Z,0.24
2023-02-11T09:12:23.570Z,0.19
2023-02-11T09:14:52.228Z,0.10
2023-02-11T09:17:22.256Z,0.21
2023-02-11T09:19:50.886Z,0.09
2023-02-11T09:22:19.518Z,0.10
2023-02-11T09:24:48.175Z,0.23
2023-02-11T09:27:16.814Z,0.22
2023-02-11T09:29:45.507Z,0.18
2023-02-11T09:32:16.181Z,0.24
2023-02-11T09:34:46.283Z,0.36
2023-02-11T09:37:16.297Z,0.53
2023-02-11T09:40:00.288Z,0.55
2023-02-11T09:42:47.308Z,0.64
2023-02-11T09:45:22.033Z,0.61
2023-02-11T09:47:58.111Z,0.64
2023-02-11T09:50:33.897Z,0.51
2023-02-11T09:53:07.944Z,0.70
2023-02-11T09:55:42.772Z,0.72
2023-02-11T09:58:18.452Z,0.78
2023-02-11T10:01:01.493Z,0.74
2023-02-11T10:04:06.634Z,0.74
2023-02-11T10:06:45.435Z,0.66
2023-02-11T10:09:51.149Z,0.72
2023-02-11T10:12:41.633Z,0.76
2023-02-11T10:15:25.887Z,0.72
2023-02-11T10:18:32.926Z,0.87
2023-02-11T10:21:20.364Z,0.85
2023-02-11T10:23:57.662Z,0.90
2023-02-11T10:26:33.290Z,1.16
2023-02-11T10:29:27.460Z,1.11
2023-02-11T10:31:58.313Z,1.13
2023-02-11T10:34:28.801Z,1.30
2023-02-11T10:36:57.508Z,1.20
2023-02-11T10:39:29.360Z,1.05
2023-02-11T10:42:06.768Z,1.24
2023-02-11T10:44:41.200Z,1.14
2023-02-11T10:47:19.209Z,1.34
2023-02-11T10:49:49.100Z,1.39
2023-02-11T10:52:24.341Z,1.36
2023-02-11T10:55:20.866Z,1.01
2023-02-11T10:57:59.020Z,1.13
2023-02-11T11:00:52.586Z,1.16
2023-02-11T11:03:27.986Z,1.04
2023-02-11T11:06:03.315Z,1.01
2023-02-11T11:08:47.504Z,1.15
2023-02-11T11:11:19.975Z,0.90
2023-02-11T11:13:59.253Z,0.99
2023-02-11T11:16:30.016Z,0.83
2023-02-11T11:19:21.553Z,0.79
2023-02-11T11:21:53.224Z,0.86
2023-02-11T11:24:27.885Z,0.98
2023-02-11T11:27:06.383Z,0.92
2023-02-11T11:29:39.753Z,0.80
2023-02-11T11:32:19.528Z,1.15
2023-02-11T11:34:54.120Z,1.06
2023-02-11T11:37:28.678Z,1.07
2023-02-11T11:40:12.850Z,1.16
2023-02-11T11:42:43.632Z,1.17
2023-02-11T11:45:27.862Z,1.13
2023-02-11T11:48:02.774Z,1.16
2023-02-11T11:50:38.981Z,0.99
2023-02-11T11:53:16.771Z,0.99
2023-02-11T11:55:50.852Z,0.97
2023-02-11T11:58:24.960Z,0.97
2023-02-11T12:01:16.940Z,1.00
2023-02-11T12:04:25.577Z,0.92
2023-02-11T12:07:13.037Z,1.04
2023-02-11T12:10:08.422Z,0.98
2023-02-11T12:12:53.434Z,0.97
2023-02-11T12:15:37.916Z,0.95
2023-02-11T12:18:36.291Z,0.88
2023-02-11T12:21:36.035Z,0.98
2023-02-11T12:24:33.690Z,1.01
2023-02-11T12:27:09.834Z,1.04
2023-02-11T12:29:55.427Z,1.01
2023-02-11T12:32:36.533Z,0.87
2023-02-11T12:35:39.752Z,0.77
2023-02-11T12:38:47.210Z,0.82
2023-02-11T12:41:51.755Z,0.76
2023-02-11T12:44:32.466Z,0.72
2023-02-11T12:47:21.693Z,0.58
2023-02-11T12:50:18.525Z,0.73
2023-02-11T12:53:11.548Z,0.79
2023-02-11T12:55:46.317Z,0.83
2023-02-11T12:58:23.838Z,0.77
2023-02-11T13:01:04.505Z,0.79
2023-02-11T13:03:42.808Z,0.69
2023-02-11T13:06:17.890Z,0.70
2023-02-11T13:08:50.617Z,0.64
2023-02-11T13:11:25.673Z,0.70
2023-02-11T13:14:01.806Z,0.65
2023-02-11T13:16:39.434Z,0.59
2023-02-11T13:19:22.566Z,0.44
2023-02-11T13:22:14.768Z,0.50
2023-02-11T13:24:49.477Z,0.28
2023-02-11T13:27:33.871Z,0.28
2023-02-11T13:30:28.668Z,0.32
2023-02-11T13:33:22.222Z,0.30
2023-02-11T13:36:20.220Z,0.52
2023-02-11T13:39:01.947Z,0.44
2023-02-11T13:41:40.328Z,0.44
2023-02-11T13:44:27.142Z,0.24
2023-02-11T13:47:01.563Z,0.18
2023-02-11T13:49:40.565Z,0.14
2023-02-11T13:52:25.075Z,0.18
2023-02-11T13:54:59.033Z,0.13
2023-02-11T13:57:34.156Z,0.22
2023-02-11T14:00:09.629Z,0.30
2023-02-11T14:02:57.060Z,0.36
2023-02-11T14:05:48.139Z,0.25
2023-02-11T14:08:43.933Z,0.18
2023-02-11T14:11:47.566Z,0.15
2023-02-11T14:14:21.944Z,0.14
2023-02-11T14:17:30.995Z,0.04
2023-02-11T14:20:02.345Z,0.04
2023-02-11T14:22:48.927Z,-0.17
2023-02-11T14:25:24.933Z,-0.08
2023-02-11T14:28:01.844Z,-0.22
2023-02-11T14:30:45.145Z,-0.27
2023-02-11T14:33:54.339Z,-0.29
2023-02-11T14:36:55.973Z,-0.30
2023-02-11T14:39:45.374Z,-0.32
2023-02-11T14:42:20.993Z,-0.46
2023-02-11T14:44:53.854Z,-0.45
2023-02-11T14:47:30.000Z,-0.48
2023-02-11T14:49:58.986Z,-0.41
2023-02-11T14:52:31.355Z,-0.60
2023-02-11T14:55:19.869Z,-0.66
2023-02-11T14:57:50.951Z,-0.55
2023-02-11T15:00:24.833Z,-0.62
2023-02-11T15:02:53.872Z,-0.68
2023-02-11T15:05:26.785Z,-0.59
2023-02-11T15:07:59.325Z,-0.66
2023-02-11T15:10:34.207Z,-0.61
2023-02-11T15:13:05.885Z,-0.71
2023-02-11T15:15:37.858Z,-0.80
2023-02-11T15:18:09.634Z,-0.80
2023-02-11T15:20:38.496Z,-0.76
2023-02-11T15:23:20.064Z,-0.89
2023-02-11T15:25:52.954Z,-0.95
2023-02-11T15:28:25.227Z,-0.80
2023-02-11T15:31:05.546Z,-0.83
2023-02-11T15:33:34.795Z,-0.87
2023-02-11T15:36:05.044Z,-0.92
2023-02-11T15:38:33.915Z,-0.85
2023-02-11T15:41:07.545Z,-0.84
2023-02-11T15:43:44.643Z,-0.81
2023-02-11T15:46:20.137Z,-0.87
2023-02-11T15:48:52.464Z,-0.83
2023-02-11T15:51:29.568Z,-0.83
2023-02-11T15:54:01.371Z,-0.77
2023-02-11T15:56:37.669Z,-0.49
2023-02-11T15:59:17.421Z,-0.69
2023-02-11T16:01:49.374Z,-0.50
2023-02-11T16:04:20.949Z,-0.59
2023-02-11T16:06:51.290Z,-0.63
2023-02-11T16:09:31.466Z,-0.66
2023-02-11T16:12:03.873Z,-0.59
2023-02-11T16:14:37.121Z,-0.49
2023-02-11T16:17:12.410Z,-0.50
2023-02-11T16:19:47.720Z,-0.41
2023-02-11T16:22:20.867Z,-0.52
2023-02-11T16:24:52.569Z,-0.52
2023-02-11T16:27:25.477Z,-0.62
2023-02-11T16:29:54.410Z,-0.69
2023-02-11T16:32:27.088Z,-0.75
2023-02-11T16:34:58.272Z,-0.87
2023-02-11T16:37:27.936Z,-0.87
2023-02-11T16:39:58.222Z,-0.95
2023-02-11T16:42:27.201Z,-1.11
2023-02-11T16:44:55.796Z,-1.16
2023-02-11T16:47:31.163Z,-1.23
2023-02-11T16:50:01.904Z,-1.32
2023-02-11T16:52:32.561Z,-1.43
2023-02-11T16:55:01.542Z,-1.37
2023-02-11T16:57:32.689Z,-1.41
2023-02-11T17:00:01.504Z,-1.50
2023-02-11T17:02:38.325Z,-1.49
2023-02-11T17:05:19.087Z,-1.52
2023-02-11T17:07:48.232Z,-1.65
2023-02-11T17:10:18.359Z,-1.70
2023-02-11T17:12:47.970Z,-1.67
2023-02-11T17:15:16.968Z,-1.76
2023-02-11T17:17:47.003Z,-1.75
2023-02-11T17:20:17.375Z,-1.72
2023-02-11T17:22:46.022Z,-1.72
2023-02-11T17:25:14.662Z,-1.82
2023-02-11T17:27:43.596Z,-1.91
2023-02-11T17:30:15.312Z,-1.92
2023-02-11T17:32:43.985Z,-1.89
2023-02-11T17:35:14.077Z,-1.99
2023-02-11T17:37:42.729Z,-2.01
2023-02-11T17:40:13.495Z,-1.94
2023-02-11T17:42:42.778Z,-2.01
2023-02-11T17:45:13.227Z,-2.18
2023-02-11T17:47:41.825Z,-2.41
2023-02-11T17:50:11.626Z,-2.51
2023-02-11T17:52:41.819Z,-2.65
2023-02-11T17:55:10.468Z,-2.74
2023-02-11T17:57:39.658Z,-2.79
2023-02-11T18:00:10.924Z,-2.95
2023-02-11T18:02:42.269Z,-2.89
2023-02-11T18:05:11.536Z,-3.01
2023-02-11T18:07:41.944Z,-3.03
2023-02-11T18:10:12.310Z,-3.06
2023-02-11T18:12:41.058Z,-3.02
2023-02-11T18:15:10.834Z,-2.96
2023-02-11T18:17:39.483Z,-2.92
2023-02-11T18:20:10.096Z,-3.04
2023-02-11T18:22:40.973Z,-3.01
2023-02-11T18:25:15.760Z,-2.94
2023-02-11T18:27:44.731Z,-2.88
2023-02-11T18:30:19.460Z,-2.75
2023-02-11T18:32:48.154Z,-2.77
2023-02-11T18:35:17.408Z,-2.74
2023-02-11T18:37:46.029Z,-2.83
2023-02-11T18:40:17.034Z,-2.80
2023-02-11T18:42:47.640Z,-2.78
2023-02-11T18:45:16.276Z,-2.81
2023-02-11T18:47:45.036Z,-2.72
2023-02-11T18:50:15.949Z,-2.76
2023-02-11T18:52:44.579Z,-2.90
2023-02-11T18:55:13.565Z,-2.85
2023-02-11T18:57:44.147Z,-2.85
2023-02-11T19:00:14.689Z,-2.79
2023-02-11T19:02:43.278Z,-2.83
2023-02-11T19:05:12.488Z,-2.88
2023-02-11T19:07:41.186Z,-2.88
2023-02-11T19:10:13.816Z,-2.88
2023-02-11T19:12:44.081Z,-2.90
2023-02-11T19:15:12.785Z,-3.00
2023-02-11T19:17:41.570Z,-3.05
2023-02-11T19:20:11.753Z,-2.97
2023-02-11T19:22:40.362Z,-3.26
2023-02-11T19:25:09.627Z,-3.47
2023-02-11T19:27:41.360Z,-3.55
2023-02-11T19:30:13.020Z,-3.68
2023-02-11T19:32:41.702Z,-3.79
2023-02-11T19:35:10.299Z,-3.85
2023-02-11T19:37:39.052Z,-3.88
2023-02-11T19:40:09.582Z,-3.97
2023-02-11T19:42:38.230Z,-4.07
2023-02-11T19:45:07.654Z,-4.09
2023-02-11T19:47:37.711Z,-4.14
2023-02-11T19:50:07.938Z,-4.15
2023-02-11T19:52:39.284Z,-4.16
2023-02-11T19:55:09.129Z,-4.18
2023-02-11T19:57:38.501Z,-4.26
2023-02-11T20:00:11.165Z,-4.26
2023-02-11T20:02:44.418Z,-4.30
2023-02-11T20:05:13.064Z,-4.41
2023-02-11T20:07:41.886Z,-4.40
2023-02-11T20:10:12.061Z,-4.48
2023-02-11T20:12:40.882Z,-4.53
2023-02-11T20:15:11.099Z,-4.54
2023-02-11T20:17:39.841Z,-4.57
2023-02-11T20:20:11.479Z,-4.66
2023-02-11T20:22:40.261Z,-4.62
2023-02-11T20:25:10.944Z,-4.76
2023-02-11T20:27:39.743Z,-4.72
2023-02-11T20:30:10.839Z,-4.93
2023-02-11T20:32:39.500Z,-4.85
2023-02-11T20:35:11.039Z,-4.92
2023-02-11T20:37:42.288Z,-4.91
2023-02-11T20:40:13.885Z,-4.95
2023-02-11T20:42:42.543Z,-4.98
2023-02-11T20:45:11.456Z,-4.98
2023-02-11T20:47:40.099Z,-4.95
2023-02-11T20:50:11.903Z,-4.96
2023-02-11T20:52:40.507Z,-5.06
2023-02-11T20:55:09.596Z,-5.06
2023-02-11T20:57:38.337Z,-5.13
2023-02-11T21:00:09.739Z,-5.10
2023-02-11T21:02:38.509Z,-5.13
2023-02-11T21:05:09.260Z,-5.10
2023-02-11T21:07:39.170Z,-5.13
2023-02-11T21:10:09.718Z,-5.12
2023-02-11T21:12:38.394Z,-5.16
2023-02-11T21:15:09.720Z,-5.10
2023-02-11T21:17:38.460Z,-5.14
2023-02-11T21:20:10.207Z,-5.17
2023-02-11T21:22:38.871Z,-5.20
2023-02-11T21:25:08.654Z,-5.17
2023-02-11T21:27:37.312Z,-5.19
2023-02-11T21:30:07.339Z,-5.16
2023-02-11T21:32:36.066Z,-5.26
2023-02-11T21:35:04.806Z,-5.35
2023-02-11T21:37:34.969Z,-5.28
2023-02-11T21:40:03.818Z,-5.37
2023-02-11T21:42:32.434Z,-5.37
2023-02-11T21:45:01.012Z,-5.37
2023-02-11T21:47:29.820Z,-5.35
2023-02-11T21:49:58.468Z,-5.40
2023-02-11T21:52:27.126Z,-5.34
2023-02-11T21:54:57.134Z,-5.38
2023-02-11T21:57:25.901Z,-5.39
2023-02-11T21:59:54.552Z,-5.36
2023-02-11T22:02:23.210Z,-5.39
2023-02-11T22:04:52.166Z,-5.45
2023-02-11T22:07:22.770Z,-5.44
2023-02-11T22:09:52.330Z,-5.39
2023-02-11T22:12:22.442Z,-5.48
2023-02-11T22:14:51.029Z,-5.44
2023-02-11T22:17:19.808Z,-5.55
2023-02-11T22:19:48.419Z,-5.53
2023-02-11T22:22:19.678Z,-5.59
2023-02-11T22:24:48.556Z,-5.58
2023-02-11T22:27:20.248Z,-5.51
2023-02-11T22:29:50.334Z,-5.55
2023-02-11T22:32:19.027Z,-5.57
2023-02-11T22:34:47.697Z,-5.62
2023-02-11T22:37:16.342Z,-5.64
2023-02-11T22:39:45.007Z,-5.66
2023-02-11T22:42:13.653Z,-5.55
2023-02-11T22:44:42.349Z,-5.63
2023-02-11T22:47:12.353Z,-5.63
2023-02-11T22:49:41.447Z,-5.74
2023-02-11T22:52:10.001Z,-5.64
2023-02-11T22:54:38.996Z,-5.62
2023-02-11T22:57:07.670Z,-5.66
2023-02-11T22:59:36.250Z,-5.61
2023-02-11T23:02:04.988Z,-5.64
2023-02-11T23:04:35.267Z,-5.61
2023-02-11T23:07:04.066Z,-5.58
2023-02-11T23:09:32.775Z,-5.62
2023-02-11T23:12:01.387Z,-5.62
2023-02-11T23:14:30.042Z,-5.58
2023-02-11T23:16:58.737Z,-5.62
2023-02-11T23:19:27.414Z,-5.57
2023-02-11T23:21:57.504Z,-5.58
2023-02-11T23:24:26.150Z,-5.65
2023-02-11T23:26:54.756Z,-5.62
2023-02-11T23:29:23.334Z,-5.60
2023-02-11T23:31:52.098Z,-5.61
2023-02-11T23:34:25.260Z,-5.55
2023-02-11T23:36:54.572Z,-5.53
2023-02-11T23:39:24.631Z,-5.53
2023-02-11T23:41:58.896Z,-5.58
2023-02-11T23:44:27.789Z,-5.52
2023-02-11T23:46:56.385Z,-5.58
2023-02-11T23:49:25.260Z,-5.53
2023-02-11T23:51:53.903Z,-5.61
2023-02-11T23:54:23.983Z,-5.66
2023-02-11T23:56:52.663Z,-5.66
2023-02-11T23:59:21.358Z,-5.67
